Pebble Island, Falkland Islands

5:25 PM FKST on August 30, 2015 (GMT -0300)
Mount Pleasant | | Change Station
CLOSE
Current Station
Airport
Location: Mount Pleasant,
Elevation: 243 ft
Nearby Weather Stations

Elev 243 ft 51.82 °S, 58.45 °W | Updated 35 minutes ago

Mostly Cloudy
Mostly Cloudy
43 °F
Feels Like 35 °F
N
15
Wind Variable Wind from West

Today
High -- | Low -- °F
--% Chance of Precip.
Yesterday
High -- | Low -- °F
Precip. -- in
7:39 AM 6:19 PM
Full, 98% visible
Pressure 29.21 in
Visibility 6.2 miles
Clouds Mostly Cloudy 1400 ft
Windchill 35 °F
Dew Point 37 °F
Humidity 81%
Rainfall 0.00 in
Snow Depth Not available.
UV 0 out of 12
Pollen Not available.
Air Quality Not available.
Flu Activity Not available.
METAR EGYP 301950Z 26013KT 9999 BKN014 06/03 Q0989 GRN
Pressure 29.21 in
Visibility 6.2 miles
Clouds Mostly Cloudy 1400 ft
Windchill 35 °F
Dew Point 37 °F
Humidity 81%
Rainfall 0.00 in
Snow Depth Not available.
UV 0 out of 12
Pollen Not available.
Air Quality Not available.
Flu Activity Not available.
METAR EGYP 301950Z 26013KT 9999 BKN014 06/03 Q0989 GRN

10-Day Weather Forecast

×

Almanac

Astronomy

Aug. 30, 2015 Rise Set
Actual Time
Civil Twilight
Nautical Twilight
Astronomical Twilight
Moon
Length of Visible Light
Length of Day
Tomorrow will be .
, % of the Moon is Illuminated

Today's Extremes

Country Highs Country Lows

Community

WunderPhotos

Upload Photos

1,851,048 photos uploaded!

WunderBlogs® & News

Nearby

Air Quality

  Air Quality AQ Index Pollutant
Not available.

Snow Depth

Station Depth Elevation

Earthquake Activity

City Distance Mag. Time & Date
Minimum magnitude displayed is 2.5.

Coastal Water Temperatures

Place Temperature

Stations

Nearby Weather Stations

Station Location Temp. Windchill Dew Point Humidity Wind Precip. Elev Updated Type